createdAt,value
2023-05-17T00:01:08.047Z,97884.97
2023-05-17T00:04:11.206Z,97883.88
2023-05-17T00:07:14.388Z,97887.13
2023-05-17T00:10:17.499Z,97880.14
2023-05-17T00:13:20.731Z,97877.92
2023-05-17T00:16:23.805Z,97877.85
2023-05-17T00:19:26.980Z,97885.59
2023-05-17T00:22:30.116Z,97886.17
2023-05-17T00:25:33.139Z,97888.75
2023-05-17T00:28:36.217Z,97893.23
2023-05-17T00:31:39.213Z,97898.70
2023-05-17T00:34:42.346Z,97899.23
2023-05-17T00:37:48.103Z,97899.95
2023-05-17T00:40:51.351Z,97899.65
2023-05-17T00:43:54.618Z,97904.33
2023-05-17T00:46:59.860Z,97903.20
2023-05-17T00:50:03.711Z,97900.66
2023-05-17T00:53:07.069Z,97903.27
2023-05-17T00:56:10.168Z,97898.61
2023-05-17T00:59:14.221Z,97890.42
2023-05-17T01:02:18.016Z,97882.05
2023-05-17T01:05:21.188Z,97875.34
2023-05-17T01:08:24.374Z,97869.81
2023-05-17T01:11:39.492Z,97870.45
2023-05-17T01:14:52.226Z,97873.09
2023-05-17T01:18:12.954Z,97882.89
2023-05-17T01:21:45.183Z,97880.70
2023-05-17T01:24:54.561Z,97879.45
2023-05-17T01:28:00.358Z,97874.02
2023-05-17T01:31:03.999Z,97872.42
2023-05-17T01:34:10.584Z,97870.81
2023-05-17T01:37:13.654Z,97869.10
2023-05-17T01:40:18.361Z,97863.90
2023-05-17T01:43:35.806Z,97854.92
2023-05-17T01:46:43.051Z,97864.90
2023-05-17T01:49:51.929Z,97876.05
2023-05-17T01:52:59.725Z,97881.54
2023-05-17T01:56:12.105Z,97876.02
2023-05-17T01:59:24.211Z,97865.99
2023-05-17T02:02:27.400Z,97867.35
2023-05-17T02:05:30.641Z,97871.35
2023-05-17T02:08:33.890Z,97877.73
2023-05-17T02:11:37.243Z,97869.84
2023-05-17T02:14:40.445Z,97871.49
2023-05-17T02:17:43.612Z,97878.42
2023-05-17T02:20:46.698Z,97893.08
2023-05-17T02:23:51.174Z,97897.09
2023-05-17T02:26:55.942Z,97908.13
2023-05-17T02:30:02.130Z,97919.33
2023-05-17T02:33:05.465Z,97923.60
2023-05-17T02:36:08.977Z,97924.81
2023-05-17T02:39:12.043Z,97920.80
2023-05-17T02:42:15.153Z,97916.73
2023-05-17T02:45:18.421Z,97910.10
2023-05-17T02:48:22.082Z,97905.67
2023-05-17T02:51:25.383Z,97902.15
2023-05-17T02:54:28.425Z,97907.65
2023-05-17T02:57:32.884Z,97907.76
2023-05-17T03:00:36.012Z,97900.52
2023-05-17T03:03:39.137Z,97900.16
2023-05-17T03:06:42.534Z,97899.69
2023-05-17T03:09:45.939Z,97905.79
2023-05-17T03:12:49.191Z,97908.88
2023-05-17T03:15:54.771Z,97917.27
2023-05-17T03:18:58.344Z,97912.84
2023-05-17T03:22:01.738Z,97906.64
2023-05-17T03:25:06.849Z,97908.25
2023-05-17T03:28:10.154Z,97916.73
2023-05-17T03:31:13.378Z,97918.98
2023-05-17T03:34:16.604Z,97921.59
2023-05-17T03:37:19.684Z,97925.16
2023-05-17T03:40:23.257Z,97930.77
2023-05-17T03:43:26.464Z,97933.31
2023-05-17T03:46:29.666Z,97937.77
2023-05-17T03:49:33.106Z,97941.48
2023-05-17T03:52:36.882Z,97949.65
2023-05-17T03:55:40.084Z,97952.98
2023-05-17T03:58:43.512Z,97954.81
2023-05-17T04:01:47.148Z,97957.35
2023-05-17T04:04:51.278Z,97957.39
2023-05-17T04:07:54.694Z,97963.27
2023-05-17T04:10:57.799Z,97970.54
2023-05-17T04:14:00.970Z,97971.84
2023-05-17T04:17:04.283Z,97973.70
2023-05-17T04:20:07.811Z,97980.91
2023-05-17T04:23:11.350Z,97978.50
2023-05-17T04:26:15.084Z,97982.06
2023-05-17T04:29:19.182Z,97985.93
2023-05-17T04:32:23.010Z,97999.73
2023-05-17T04:35:26.426Z,98002.45
2023-05-17T04:38:30.540Z,98007.52
2023-05-17T04:41:33.742Z,97998.92
2023-05-17T04:44:38.444Z,98001.92
2023-05-17T04:47:41.800Z,98001.02
2023-05-17T04:50:46.380Z,97993.52
2023-05-17T04:53:49.561Z,97994.19
2023-05-17T04:56:53.765Z,97993.97
2023-05-17T05:00:15.680Z,97990.74
2023-05-17T05:03:23.016Z,97993.29
2023-05-17T05:06:26.366Z,97993.94
2023-05-17T05:09:29.766Z,97992.82
2023-05-17T05:12:33.116Z,97995.18
2023-05-17T05:15:36.210Z,97987.56
2023-05-17T05:18:40.315Z,97992.25
2023-05-17T05:21:46.432Z,98000.65
2023-05-17T05:24:49.931Z,98008.75
2023-05-17T05:27:53.376Z,98016.66
2023-05-17T05:31:02.693Z,98021.64
2023-05-17T05:34:11.580Z,98024.13
2023-05-17T05:37:16.199Z,98033.13
2023-05-17T05:40:21.491Z,98037.16
2023-05-17T05:43:24.733Z,98031.14
2023-05-17T05:46:27.948Z,98026.63
2023-05-17T05:49:31.127Z,98036.63
2023-05-17T05:52:34.292Z,98039.48
2023-05-17T05:55:41.220Z,98044.27
2023-05-17T05:58:45.192Z,98048.44
2023-05-17T06:01:48.482Z,98055.14
2023-05-17T06:04:51.487Z,98063.38
2023-05-17T06:07:54.536Z,98067.73
2023-05-17T06:10:57.782Z,98066.84
2023-05-17T06:14:01.191Z,98079.34
2023-05-17T06:17:04.963Z,98094.49
2023-05-17T06:20:09.613Z,98103.89
2023-05-17T06:23:13.689Z,98105.67
2023-05-17T06:26:17.015Z,98102.58
2023-05-17T06:29:20.237Z,98104.50
2023-05-17T06:32:23.330Z,98104.77
2023-05-17T06:35:26.718Z,98108.86
2023-05-17T06:38:29.837Z,98120.48
2023-05-17T06:41:32.969Z,98122.26
2023-05-17T06:44:36.090Z,98128.45
2023-05-17T06:47:39.835Z,98130.86
2023-05-17T06:50:43.112Z,98136.39
2023-05-17T06:53:46.180Z,98133.59
2023-05-17T06:56:49.184Z,98136.42
2023-05-17T06:59:52.436Z,98139.98
2023-05-17T07:02:55.788Z,98142.85
2023-05-17T07:05:59.001Z,98143.95
2023-05-17T07:09:02.231Z,98145.78
2023-05-17T07:12:06.189Z,98145.23
2023-05-17T07:15:09.760Z,98149.81
2023-05-17T07:18:12.948Z,98159.98
2023-05-17T07:21:17.474Z,98162.91
2023-05-17T07:24:21.735Z,98167.11
2023-05-17T07:27:27.331Z,98173.01
2023-05-17T07:30:30.503Z,98177.73
2023-05-17T07:33:33.618Z,98172.78
2023-05-17T07:36:36.981Z,98172.67
2023-05-17T07:39:42.239Z,98173.45
2023-05-17T07:43:25.060Z,98180.89
2023-05-17T07:46:26.981Z,98188.23
2023-05-17T07:49:30.216Z,98194.17
2023-05-17T07:52:32.306Z,98195.35
2023-05-17T07:55:35.866Z,98195.52
2023-05-17T07:58:37.702Z,98192.59
2023-05-17T08:01:39.520Z,98194.48
2023-05-17T08:04:44.662Z,98195.04
2023-05-17T08:07:46.497Z,98195.34
2023-05-17T08:10:49.168Z,98198.52
2023-05-17T08:13:50.949Z,98202.47
2023-05-17T08:16:52.849Z,98209.65
2023-05-17T08:19:54.727Z,98219.75
2023-05-17T08:22:56.705Z,98227.16
2023-05-17T08:25:58.735Z,98232.78
2023-05-17T08:29:04.191Z,98238.94
2023-05-17T08:32:07.642Z,98240.69
2023-05-17T08:35:13.008Z,98243.84
2023-05-17T08:38:14.903Z,98247.92
2023-05-17T08:41:16.722Z,98252.45
2023-05-17T08:44:20.148Z,98261.14
2023-05-17T08:47:29.128Z,98260.67
2023-05-17T08:50:34.265Z,98262.82
2023-05-17T08:53:36.190Z,98261.80
2023-05-17T08:56:42.051Z,98263.92
2023-05-17T08:59:49.995Z,98268.41
2023-05-17T09:02:51.899Z,98269.90
2023-05-17T09:05:57.446Z,98269.11
2023-05-17T09:09:04.497Z,98265.58
2023-05-17T09:12:09.519Z,98263.11
2023-05-17T09:15:20.309Z,98260.35
2023-05-17T09:18:34.965Z,98257.42
2023-05-17T09:21:37.145Z,98256.38
2023-05-17T09:24:40.848Z,98259.61
2023-05-17T09:27:42.868Z,98255.58
2023-05-17T09:30:47.720Z,98259.13
2023-05-17T09:33:50.153Z,98261.36
2023-05-17T09:36:54.021Z,98266.08
2023-05-17T09:39:56.058Z,98271.08
2023-05-17T09:42:58.993Z,98274.10
2023-05-17T09:46:00.869Z,98287.27
2023-05-17T09:49:03.454Z,98295.41
2023-05-17T09:52:07.687Z,98305.41
2023-05-17T09:55:11.277Z,98311.23
2023-05-17T09:58:13.580Z,98312.73
2023-05-17T10:01:16.001Z,98312.03
2023-05-17T10:04:22.693Z,98314.10
2023-05-17T10:07:26.105Z,98322.64
2023-05-17T10:10:30.575Z,98321.39
2023-05-17T10:14:05.947Z,98322.02
2023-05-17T10:17:09.281Z,98323.05
2023-05-17T10:20:13.114Z,98318.31
2023-05-17T10:23:16.363Z,98321.54
2023-05-17T10:26:20.219Z,98319.88
2023-05-17T10:29:22.936Z,98318.06
2023-05-17T10:32:26.943Z,98319.95
2023-05-17T10:35:30.467Z,98321.84
2023-05-17T10:38:41.914Z,98320.81
2023-05-17T10:41:47.273Z,98319.55
2023-05-17T10:44:49.539Z,98324.65
2023-05-17T10:47:52.897Z,98332.13
2023-05-17T10:54:17.743Z,98331.02
2023-05-17T10:57:49.211Z,98328.56
2023-05-17T11:00:55.276Z,98333.76
2023-05-17T11:03:57.897Z,98337.38
2023-05-17T11:07:28.507Z,98342.02
2023-05-17T11:10:31.102Z,98343.36
2023-05-17T11:13:33.035Z,98352.88
2023-05-17T11:16:36.887Z,98353.68
2023-05-17T11:19:38.879Z,98360.15
2023-05-17T11:23:04.806Z,98365.96
2023-05-17T11:26:31.377Z,98367.69
2023-05-17T11:29:33.894Z,98372.19
2023-05-17T11:32:35.928Z,98375.91
2023-05-17T11:35:39.061Z,98378.27
2023-05-17T11:38:41.034Z,98382.79
2023-05-17T11:41:50.936Z,98380.36
2023-05-17T11:44:56.534Z,98383.60
2023-05-17T11:47:58.651Z,98384.55
2023-05-17T11:51:02.487Z,98388.34
2023-05-17T11:54:06.643Z,98390.86
2023-05-17T11:57:10.646Z,98393.02
2023-05-17T12:00:13.452Z,98395.77
2023-05-17T12:03:16.496Z,98403.42
2023-05-17T12:06:18.507Z,98402.71
2023-05-17T12:09:22.557Z,98407.12
2023-05-17T12:12:25.432Z,98412.64
2023-05-17T12:15:30.013Z,98415.35
2023-05-17T12:18:37.116Z,98416.54
2023-05-17T12:21:39.062Z,98419.15
2023-05-17T12:24:42.545Z,98426.79
2023-05-17T12:27:44.401Z,98427.72
2023-05-17T12:30:51.213Z,98431.58
2023-05-17T12:33:53.963Z,98428.90
2023-05-17T12:36:56.198Z,98430.95
2023-05-17T12:40:01.193Z,98438.19
2023-05-17T12:43:03.629Z,98441.34
2023-05-17T12:46:12.421Z,98445.28
2023-05-17T12:49:14.452Z,98439.92
2023-05-17T12:52:17.988Z,98446.38
2023-05-17T12:55:19.735Z,98438.42
2023-05-17T12:58:21.573Z,98441.56
2023-05-17T13:01:23.441Z,98442.67
2023-05-17T13:04:33.640Z,98445.02
2023-05-17T13:07:35.835Z,98449.21
2023-05-17T13:10:37.604Z,98451.81
2023-05-17T13:13:40.147Z,98451.64
2023-05-17T13:16:42.160Z,98453.38
2023-05-17T13:19:44.122Z,98455.11
2023-05-17T13:22:46.610Z,98450.30
2023-05-17T13:25:48.536Z,98453.54
2023-05-17T13:28:50.674Z,98453.52
2023-05-17T13:31:52.526Z,98455.27
2023-05-17T13:34:54.645Z,98457.55
2023-05-17T13:37:57.297Z,98459.12
2023-05-17T13:40:59.101Z,98466.52
2023-05-17T13:44:01.090Z,98475.18
2023-05-17T13:47:03.198Z,98479.52
2023-05-17T13:50:05.672Z,98484.56
2023-05-17T13:53:08.113Z,98487.95
2023-05-17T13:56:10.337Z,98491.48
2023-05-17T13:59:12.243Z,98488.73
2023-05-17T14:02:14.662Z,98488.73
2023-05-17T14:05:17.495Z,98491.65
2023-05-17T14:08:19.720Z,98487.02
2023-05-17T14:11:21.531Z,98484.10
2023-05-17T14:14:25.493Z,98487.88
2023-05-17T14:17:28.132Z,98492.30
2023-05-17T14:20:30.681Z,98495.37
2023-05-17T14:23:34.092Z,98497.17
2023-05-17T14:26:36.569Z,98498.36
2023-05-17T14:29:38.358Z,98504.83
2023-05-17T14:32:40.881Z,98506.23
2023-05-17T14:35:42.682Z,98510.27
2023-05-17T14:38:44.355Z,98512.30
2023-05-17T14:41:46.139Z,98514.75
2023-05-17T14:44:47.853Z,98513.27
2023-05-17T14:47:49.648Z,98512.14
2023-05-17T14:50:52.670Z,98516.48
2023-05-17T14:53:54.429Z,98518.77
2023-05-17T14:56:56.710Z,98515.84
2023-05-17T14:59:59.721Z,98518.05
2023-05-17T15:03:01.818Z,98520.66
2023-05-17T15:06:07.486Z,98521.83
2023-05-17T15:09:13.544Z,98515.77
2023-05-17T15:12:15.432Z,98522.70
2023-05-17T15:15:17.373Z,98521.44
2023-05-17T15:18:19.896Z,98521.52
2023-05-17T15:21:21.777Z,98527.25
2023-05-17T15:24:23.652Z,98532.61
2023-05-17T15:27:25.540Z,98532.77
2023-05-17T15:30:27.581Z,98535.13
2023-05-17T15:33:30.389Z,98538.90
2023-05-17T15:36:32.207Z,98543.71
2023-05-17T15:39:37.546Z,98549.30
2023-05-17T15:42:39.839Z,98554.73
2023-05-17T15:45:41.687Z,98550.79
2023-05-17T15:48:43.868Z,98550.02
2023-05-17T15:51:46.213Z,98556.38
2023-05-17T15:54:49.644Z,98558.04
2023-05-17T15:57:51.488Z,98557.41
2023-05-17T16:00:54.472Z,98560.48
2023-05-17T16:03:56.340Z,98555.52
2023-05-17T16:06:58.180Z,98557.09
2023-05-17T16:09:59.905Z,98561.48
2023-05-17T16:13:02.910Z,98557.95
2023-05-17T16:16:05.198Z,98561.09
2023-05-17T16:19:07.027Z,98560.71
2023-05-17T16:22:09.021Z,98564.09
2023-05-17T16:25:12.277Z,98565.41
2023-05-17T16:28:14.008Z,98561.16
2023-05-17T16:31:15.951Z,98565.90
2023-05-17T16:34:17.912Z,98566.36
2023-05-17T16:37:19.613Z,98567.55
2023-05-17T16:40:21.430Z,98568.02
2023-05-17T16:43:23.194Z,98571.80
2023-05-17T16:46:25.771Z,98577.79
2023-05-17T16:49:29.559Z,98584.71
2023-05-17T16:52:31.482Z,98579.98
2023-05-17T16:55:35.484Z,98582.91
2023-05-17T16:58:37.345Z,98585.50
2023-05-17T17:01:39.539Z,98582.98
2023-05-17T17:04:41.158Z,98580.86
2023-05-17T17:07:45.232Z,98580.14
2023-05-17T17:10:46.986Z,98584.71
2023-05-17T17:13:49.633Z,98592.67
2023-05-17T17:16:51.378Z,98601.27
2023-05-17T17:19:53.071Z,98603.63
2023-05-17T17:22:55.376Z,98606.92
2023-05-17T17:25:57.039Z,98605.11
2023-05-17T17:28:59.351Z,98607.08
2023-05-17T17:32:01.884Z,98612.99
2023-05-17T17:35:04.028Z,98620.23
2023-05-17T17:38:06.054Z,98627.88
2023-05-17T17:41:09.241Z,98634.88
2023-05-17T17:44:11.210Z,98636.85
2023-05-17T17:47:13.206Z,98635.83
2023-05-17T17:50:15.043Z,98638.26
2023-05-17T17:53:16.816Z,98640.16
2023-05-17T17:56:18.967Z,98646.86
2023-05-17T17:59:21.017Z,98657.71
2023-05-17T18:02:22.713Z,98665.20
2023-05-17T18:05:25.536Z,98665.89
2023-05-17T18:08:27.373Z,98668.35
2023-05-17T18:11:29.075Z,98667.08
2023-05-17T18:14:30.888Z,98669.75
2023-05-17T18:17:32.809Z,98664.24
2023-05-17T18:20:34.859Z,98652.91
2023-05-17T18:23:37.341Z,98646.52
2023-05-17T18:26:39.474Z,98646.13
2023-05-17T18:29:41.710Z,98638.65
2023-05-17T18:32:43.744Z,98644.39
2023-05-17T18:35:45.674Z,98652.73
2023-05-17T18:38:47.445Z,98661.72
2023-05-17T18:41:49.170Z,98664.62
2023-05-17T18:44:50.950Z,98667.77
2023-05-17T18:47:52.758Z,98674.92
2023-05-17T18:50:56.736Z,98673.98
2023-05-17T18:53:58.449Z,98678.94
2023-05-17T18:57:00.182Z,98682.88
2023-05-17T19:00:02.057Z,98685.86
2023-05-17T19:03:03.968Z,98692.46
2023-05-17T19:06:05.787Z,98697.65
2023-05-17T19:09:07.929Z,98694.66
2023-05-17T19:12:09.784Z,98695.60
2023-05-17T19:15:11.681Z,98698.59
2023-05-17T19:18:13.496Z,98701.73
2023-05-17T19:21:15.459Z,98700.87
2023-05-17T19:24:17.260Z,98703.85
2023-05-17T19:27:19.125Z,98700.00
2023-05-17T19:30:20.882Z,98694.71
2023-05-17T19:33:23.231Z,98694.09
2023-05-17T19:36:25.359Z,98697.32
2023-05-17T19:39:27.141Z,98694.48
2023-05-17T19:42:28.930Z,98694.55
2023-05-17T19:45:30.655Z,98702.51
2023-05-17T19:48:32.400Z,98701.63
2023-05-17T19:51:34.422Z,98711.08
2023-05-17T19:54:36.221Z,98719.02
2023-05-17T19:57:38.053Z,98726.56
2023-05-17T20:00:39.756Z,98727.66
2023-05-17T20:03:41.710Z,98727.66
2023-05-17T20:06:43.793Z,98721.84
2023-05-17T20:09:45.691Z,98729.15
2023-05-17T20:12:47.567Z,98731.83
2023-05-17T20:15:49.344Z,98734.49
2023-05-17T20:18:51.117Z,98739.06
2023-05-17T20:21:53.027Z,98737.80
2023-05-17T20:24:57.105Z,98740.15
2023-05-17T20:27:59.636Z,98738.96
2023-05-17T20:31:01.891Z,98745.48
2023-05-17T20:34:04.341Z,98751.79
2023-05-17T20:37:06.101Z,98745.02
2023-05-17T20:40:09.231Z,98749.48
2023-05-17T20:43:11.042Z,98752.80
2023-05-17T20:46:13.411Z,98752.79
2023-05-17T20:49:16.309Z,98759.95
2023-05-17T20:52:24.734Z,98763.96
2023-05-17T20:55:39.646Z,98767.65
2023-05-17T20:58:41.396Z,98765.60
2023-05-17T21:01:43.548Z,98764.82
2023-05-17T21:04:45.442Z,98769.92
2023-05-17T21:07:49.880Z,98768.50
2023-05-17T21:10:52.478Z,98772.45
2023-05-17T21:13:54.492Z,98768.81
2023-05-17T21:16:56.376Z,98776.52
2023-05-17T21:19:58.153Z,98779.91
2023-05-17T21:22:59.859Z,98788.32
2023-05-17T21:26:01.759Z,98788.01
2023-05-17T21:29:03.514Z,98782.02
2023-05-17T21:32:05.512Z,98780.74
2023-05-17T21:35:07.692Z,98786.25
2023-05-17T21:38:09.393Z,98782.85
2023-05-17T21:41:11.138Z,98782.07
2023-05-17T21:44:12.918Z,98781.83
2023-05-17T21:47:14.893Z,98784.97
2023-05-17T21:50:16.943Z,98788.20
2023-05-17T21:53:18.652Z,98782.35
2023-05-17T21:56:21.121Z,98780.63
2023-05-17T21:59:24.315Z,98777.55
2023-05-17T22:02:26.250Z,98776.48
2023-05-17T22:05:28.220Z,98780.16
2023-05-17T22:08:31.460Z,98783.70
2023-05-17T22:11:37.913Z,98779.05
2023-05-17T22:14:42.706Z,98782.89
2023-05-17T22:17:51.797Z,98784.55
2023-05-17T22:20:54.617Z,98790.67
2023-05-17T22:23:56.444Z,98797.36
2023-05-17T22:26:58.215Z,98799.63
2023-05-17T22:30:00.293Z,98802.38
2023-05-17T22:33:02.422Z,98802.46
2023-05-17T22:36:04.238Z,98800.41
2023-05-17T22:39:05.892Z,98799.55
2023-05-17T22:42:08.679Z,98799.45
2023-05-17T22:45:14.193Z,98796.46
2023-05-17T22:48:16.026Z,98800.86
2023-05-17T22:51:18.044Z,98797.71
2023-05-17T22:54:20.453Z,98800.62
2023-05-17T22:57:22.157Z,98797.23
2023-05-17T23:00:24.930Z,98792.67
2023-05-17T23:03:26.652Z,98794.41
2023-05-17T23:06:31.470Z,98788.89
2023-05-17T23:09:33.163Z,98795.02
2023-05-17T23:12:36.383Z,98799.19
2023-05-17T23:15:38.718Z,98800.83
2023-05-17T23:18:40.701Z,98798.16
2023-05-17T23:21:42.988Z,98797.29
2023-05-17T23:24:45.877Z,98803.02
2023-05-17T23:27:48.461Z,98796.64
2023-05-17T23:30:52.888Z,98803.55
2023-05-17T23:33:54.606Z,98804.34
2023-05-17T23:36:56.338Z,98806.14
2023-05-17T23:39:58.712Z,98798.66
2023-05-17T23:43:00.352Z,98803.78
2023-05-17T23:46:02.736Z,98800.47
2023-05-17T23:49:05.172Z,98797.32
2023-05-17T23:52:10.564Z,98797.80
2023-05-17T23:55:12.421Z,98791.17
2023-05-17T23:58:14.156Z,98790.85
